sensor_id;sensor_type;location;lat;lon;timestamp;pressure;altitude;pressure_sealevel;temperature;humidity
5877;BME280;2964;42.144;24.730;2023-05-01T00:00:49;144617.84;;;12.22;100.00
5877;BME280;2964;42.144;24.730;2023-05-01T00:03:16;144617.84;;;12.22;100.00
5877;BME280;2964;42.144;24.730;2023-05-01T00:05:43;144619.09;;;12.23;100.00
5877;BME280;2964;42.144;24.730;2023-05-01T00:08:10;144639.25;;;12.31;100.00
5877;BME280;2964;42.144;24.730;2023-05-01T00:10:37;144641.75;;;12.32;100.00
5877;BME280;2964;42.144;24.730;2023-05-01T00:13:04;144653.09;;;12.36;100.00
5877;BME280;2964;42.144;24.730;2023-05-01T00:15:31;144682.00;;;12.48;100.00
5877;BME280;2964;42.144;24.730;2023-05-01T00:17:59;144710.97;;;12.60;100.00
5877;BME280;2964;42.144;24.730;2023-05-01T00:20:26;144679.50;;;12.47;100.00
5877;BME280;2964;42.144;24.730;2023-05-01T00:22:53;144660.66;;;12.40;100.00
5877;BME280;2964;42.144;24.730;2023-05-01T00:25:19;144649.31;;;12.35;100.00
5877;BME280;2964;42.144;24.730;2023-05-01T00:27:46;144631.69;;;12.28;100.00
5877;BME280;2964;42.144;24.730;2023-05-01T00:30:13;144609.06;;;12.19;100.00
5877;BME280;2964;42.144;24.730;2023-05-01T00:32:40;144611.59;;;12.20;100.00
5877;BME280;2964;42.144;24.730;2023-05-01T00:35:08;144616.63;;;12.22;100.00
5877;BME280;2964;42.144;24.730;2023-05-01T00:37:35;144612.81;;;12.20;100.00
5877;BME280;2964;42.144;24.730;2023-05-01T00:40:03;144597.75;;;12.14;100.00
5877;BME280;2964;42.144;24.730;2023-05-01T00:42:33;144593.97;;;12.12;100.00
5877;BME280;2964;42.144;24.730;2023-05-01T00:45:00;144591.44;;;12.11;100.00
5877;BME280;2964;42.144;24.730;2023-05-01T00:47:27;144590.19;;;12.11;100.00
5877;BME280;2964;42.144;24.730;2023-05-01T00:49:54;144583.91;;;12.08;100.00
5877;BME280;2964;42.144;24.730;2023-05-01T00:52:23;144573.81;;;12.04;100.00
5877;BME280;2964;42.144;24.730;2023-05-01T00:54:50;144599.00;;;12.14;100.00
5877;BME280;2964;42.144;24.730;2023-05-01T00:57:18;144581.38;;;12.07;100.00
5877;BME280;2964;42.144;24.730;2023-05-01T00:59:44;144568.81;;;12.02;100.00
5877;BME280;2964;42.144;24.730;2023-05-01T01:02:11;144578.91;;;12.06;100.00
5877;BME280;2964;42.144;24.730;2023-05-01T01:04:39;144456.88;;;11.56;100.00
5877;BME280;2964;42.144;24.730;2023-05-01T01:07:09;144604.03;;;12.16;100.00
5877;BME280;2964;42.144;24.730;2023-05-01T01:09:47;144649.31;;;12.35;100.00
5877;BME280;2964;42.144;24.730;2023-05-01T01:12:25;144668.16;;;12.43;100.00
5877;BME280;2964;42.144;24.730;2023-05-01T01:14:57;144664.38;;;12.41;100.00
5877;BME280;2964;42.144;24.730;2023-05-01T01:17:29;144644.28;;;12.33;100.00
5877;BME280;2964;42.144;24.730;2023-05-01T01:20:13;144661.88;;;12.40;100.00
5877;BME280;2964;42.144;24.730;2023-05-01T01:22:46;144565.03;;;12.01;100.00
5877;BME280;2964;42.144;24.730;2023-05-01T01:25:46;144619.09;;;12.23;100.00
5877;BME280;2964;42.144;24.730;2023-05-01T01:28:34;144599.00;;;12.14;100.00
5877;BME280;2964;42.144;24.730;2023-05-01T01:31:16;144583.91;;;12.08;100.00
5877;BME280;2964;42.144;24.730;2023-05-01T01:34:00;144656.88;;;12.38;100.00
5877;BME280;2964;42.144;24.730;2023-05-01T01:36:41;144583.91;;;12.08;100.00
5877;BME280;2964;42.144;24.730;2023-05-01T01:39:13;144557.50;;;11.97;100.00
5877;BME280;2964;42.144;24.730;2023-05-01T01:41:48;144532.28;;;11.87;100.00
5877;BME280;2964;42.144;24.730;2023-05-01T01:44:19;144640.50;;;12.31;100.00
5877;BME280;2964;42.144;24.730;2023-05-01T01:46:50;144626.66;;;12.26;100.00
5877;BME280;2964;42.144;24.730;2023-05-01T01:49:22;144665.66;;;12.42;100.00
5877;BME280;2964;42.144;24.730;2023-05-01T01:51:51;144606.56;;;12.18;100.00
5877;BME280;2964;42.144;24.730;2023-05-01T01:54:23;144565.03;;;12.01;100.00
5877;BME280;2964;42.144;24.730;2023-05-01T01:56:52;144679.50;;;12.47;100.00
5877;BME280;2964;42.144;24.730;2023-05-01T01:59:22;144612.81;;;12.20;100.00
5877;BME280;2964;42.144;24.730;2023-05-01T02:01:48;144536.06;;;11.89;100.00
5877;BME280;2964;42.144;24.730;2023-05-01T02:04:17;144427.94;;;11.45;100.00
5877;BME280;2964;42.144;24.730;2023-05-01T02:06:45;144510.94;;;11.78;100.00
5877;BME280;2964;42.144;24.730;2023-05-01T02:09:14;144510.94;;;11.78;100.00
5877;BME280;2964;42.144;24.730;2023-05-01T02:11:42;144493.34;;;11.71;100.00
5877;BME280;2964;42.144;24.730;2023-05-01T02:14:11;144513.44;;;11.79;100.00
5877;BME280;2964;42.144;24.730;2023-05-01T02:16:40;144362.63;;;11.18;100.00
5877;BME280;2964;42.144;24.730;2023-05-01T02:19:08;144493.34;;;11.71;100.00
5877;BME280;2964;42.144;24.730;2023-05-01T02:21:35;144531.03;;;11.87;100.00
5877;BME280;2964;42.144;24.730;2023-05-01T02:24:06;144552.47;;;11.95;100.00
5877;BME280;2964;42.144;24.730;2023-05-01T02:26:40;144528.50;;;11.86;100.00
5877;BME280;2964;42.144;24.730;2023-05-01T02:29:07;144509.66;;;11.78;100.00
5877;BME280;2964;42.144;24.730;2023-05-01T02:31:34;144460.63;;;11.58;100.00
5877;BME280;2964;42.144;24.730;2023-05-01T02:34:01;144434.25;;;11.47;100.00
5877;BME280;2964;42.144;24.730;2023-05-01T02:36:28;144416.66;;;11.40;100.00
5877;BME280;2964;42.144;24.730;2023-05-01T02:38:56;144410.34;;;11.37;100.00
5877;BME280;2964;42.144;24.730;2023-05-01T02:41:24;144355.06;;;11.15;100.00
5877;BME280;2964;42.144;24.730;2023-05-01T02:43:55;144346.25;;;11.11;100.00
5877;BME280;2964;42.144;24.730;2023-05-01T02:46:24;144360.09;;;11.17;100.00
5877;BME280;2964;42.144;24.730;2023-05-01T02:48:52;144341.25;;;11.09;100.00
5877;BME280;2964;42.144;24.730;2023-05-01T02:51:19;144333.69;;;11.06;100.00
5877;BME280;2964;42.144;24.730;2023-05-01T02:53:49;144324.88;;;11.02;100.00
5877;BME280;2964;42.144;24.730;2023-05-01T02:56:15;144332.44;;;11.06;100.00
5877;BME280;2964;42.144;24.730;2023-05-01T02:58:44;144318.63;;;11.00;100.00
5877;BME280;2964;42.144;24.730;2023-05-01T03:01:10;144314.84;;;10.98;100.00
5877;BME280;2964;42.144;24.730;2023-05-01T03:03:37;144257.03;;;10.75;100.00
5877;BME280;2964;42.144;24.730;2023-05-01T03:06:04;144318.63;;;11.00;100.00
5877;BME280;2964;42.144;24.730;2023-05-01T03:08:30;144327.44;;;11.04;100.00
5877;BME280;2964;42.144;24.730;2023-05-01T03:10:57;144352.53;;;11.14;100.00
5877;BME280;2964;42.144;24.730;2023-05-01T03:13:24;144381.47;;;11.26;100.00
5877;BME280;2964;42.144;24.730;2023-05-01T03:15:52;144377.69;;;11.24;100.00
5877;BME280;2964;42.144;24.730;2023-05-01T03:18:18;144353.81;;;11.14;100.00
5877;BME280;2964;42.144;24.730;2023-05-01T03:20:51;144329.91;;;11.05;100.00
5877;BME280;2964;42.144;24.730;2023-05-01T03:23:18;144333.69;;;11.06;100.00
5877;BME280;2964;42.144;24.730;2023-05-01T03:25:45;144337.47;;;11.08;100.00
5877;BME280;2964;42.144;24.730;2023-05-01T03:28:12;144289.75;;;10.88;100.00
5877;BME280;2964;42.144;24.730;2023-05-01T03:30:38;144287.22;;;10.87;100.00
5877;BME280;2964;42.144;24.730;2023-05-01T03:33:07;144317.38;;;10.99;100.00
5877;BME280;2964;42.144;24.730;2023-05-01T03:35:33;144333.69;;;11.06;100.00
5877;BME280;2964;42.144;24.730;2023-05-01T03:38:00;144414.13;;;11.39;100.00
5877;BME280;2964;42.144;24.730;2023-05-01T03:40:27;144412.88;;;11.38;100.00
5877;BME280;2964;42.144;24.730;2023-05-01T03:42:53;144432.97;;;11.47;100.00
5877;BME280;2964;42.144;24.730;2023-05-01T03:45:20;144407.84;;;11.36;100.00
5877;BME280;2964;42.144;24.730;2023-05-01T03:47:47;144387.72;;;11.28;100.00
5877;BME280;2964;42.144;24.730;2023-05-01T03:50:15;144316.09;;;10.99;100.00
5877;BME280;2964;42.144;24.730;2023-05-01T03:52:41;144370.13;;;11.21;100.00
5877;BME280;2964;42.144;24.730;2023-05-01T03:55:08;144360.09;;;11.17;100.00
5877;BME280;2964;42.144;24.730;2023-05-01T03:57:35;144361.31;;;11.17;100.00
5877;BME280;2964;42.144;24.730;2023-05-01T04:00:02;144337.47;;;11.08;100.00
5877;BME280;2964;42.144;24.730;2023-05-01T04:02:29;144368.88;;;11.20;100.00
5877;BME280;2964;42.144;24.730;2023-05-01T04:04:56;144371.41;;;11.22;100.00
5877;BME280;2964;42.144;24.730;2023-05-01T04:07:24;144360.09;;;11.17;100.00
5877;BME280;2964;42.144;24.730;2023-05-01T04:09:51;144367.63;;;11.20;100.00
5877;BME280;2964;42.144;24.730;2023-05-01T04:12:18;144446.78;;;11.52;100.00
5877;BME280;2964;42.144;24.730;2023-05-01T04:14:44;144459.38;;;11.57;100.00
5877;BME280;2964;42.144;24.730;2023-05-01T04:17:12;144510.94;;;11.78;100.00
5877;BME280;2964;42.144;24.730;2023-05-01T04:19:38;144533.59;;;11.88;100.00
5877;BME280;2964;42.144;24.730;2023-05-01T04:22:05;144544.91;;;11.92;100.00
5877;BME280;2964;42.144;24.730;2023-05-01T04:24:33;144532.28;;;11.87;100.00
5877;BME280;2964;42.144;24.730;2023-05-01T04:27:01;144523.50;;;11.84;100.00
5877;BME280;2964;42.144;24.730;2023-05-01T04:29:27;144536.06;;;11.89;100.00
5877;BME280;2964;42.144;24.730;2023-05-01T04:31:54;144538.66;;;11.90;100.00
5877;BME280;2964;42.144;24.730;2023-05-01T04:34:21;144627.91;;;12.26;100.00
5877;BME280;2964;42.144;24.730;2023-05-01T04:36:48;144669.47;;;12.43;100.00
5877;BME280;2964;42.144;24.730;2023-05-01T04:39:16;144744.91;;;12.74;100.00
5877;BME280;2964;42.144;24.730;2023-05-01T04:41:44;144746.19;;;12.74;100.00
5877;BME280;2964;42.144;24.730;2023-05-01T04:44:10;144716.00;;;12.62;100.00
5877;BME280;2964;42.144;24.730;2023-05-01T04:46:37;144719.78;;;12.64;100.00
5877;BME280;2964;42.144;24.730;2023-05-01T04:49:04;144741.13;;;12.72;100.00
5877;BME280;2964;42.144;24.730;2023-05-01T04:51:30;144800.31;;;12.97;100.00
5877;BME280;2964;42.144;24.730;2023-05-01T04:53:57;144956.41;;;13.60;100.00
5877;BME280;2964;42.144;24.730;2023-05-01T04:56:24;145132.75;;;14.32;98.15
5877;BME280;2964;42.144;24.730;2023-05-01T04:58:52;145516.06;;;15.88;92.96
5877;BME280;2964;42.144;24.730;2023-05-01T05:01:19;145659.84;;;16.47;88.06
5877;BME280;2964;42.144;24.730;2023-05-01T05:03:45;146067.75;;;18.12;82.49
5877;BME280;2964;42.144;24.730;2023-05-01T05:06:12;146387.63;;;19.42;77.07
5877;BME280;2964;42.144;24.730;2023-05-01T05:08:38;146205.53;;;18.68;78.93
5877;BME280;2964;42.144;24.730;2023-05-01T05:11:05;146252.31;;;18.87;76.60
5877;BME280;2964;42.144;24.730;2023-05-01T05:13:32;146635.56;;;20.43;74.16
5877;BME280;2964;42.144;24.730;2023-05-01T05:16:00;147067.44;;;22.18;64.95
5877;BME280;2964;42.144;24.730;2023-05-01T05:18:26;147115.66;;;22.38;63.02
5877;BME280;2964;42.144;24.730;2023-05-01T05:20:53;147553.19;;;24.15;59.91
5877;BME280;2964;42.144;24.730;2023-05-01T05:23:20;147870.56;;;25.43;55.57
5877;BME280;2964;42.144;24.730;2023-05-01T05:25:46;147489.75;;;23.89;54.96
5877;BME280;2964;42.144;24.730;2023-05-01T05:28:13;147083.94;;;22.25;61.39
5877;BME280;2964;42.144;24.730;2023-05-01T05:30:40;147851.53;;;25.35;54.88
5877;BME280;2964;42.144;24.730;2023-05-01T05:33:08;148230.19;;;26.88;50.14
5877;BME280;2964;42.144;24.730;2023-05-01T05:35:34;147702.97;;;24.75;52.35
5877;BME280;2964;42.144;24.730;2023-05-01T05:38:01;147813.41;;;25.20;54.03
5877;BME280;2964;42.144;24.730;2023-05-01T05:40:27;148080.19;;;26.28;52.24
5877;BME280;2964;42.144;24.730;2023-05-01T05:42:54;148433.66;;;27.70;48.20
5877;BME280;2964;42.144;24.730;2023-05-01T05:45:21;148455.22;;;27.79;41.76
5877;BME280;2964;42.144;24.730;2023-05-01T05:47:48;148521.44;;;28.06;42.42
5877;BME280;2964;42.144;24.730;2023-05-01T05:50:16;148082.75;;;26.29;44.56
5877;BME280;2964;42.144;24.730;2023-05-01T05:52:43;148368.75;;;27.44;44.16
5877;BME280;2964;42.144;24.730;2023-05-01T05:55:10;148641.06;;;28.54;41.99
5877;BME280;2964;42.144;24.730;2023-05-01T05:57:36;148206.03;;;26.79;43.02
5877;BME280;2964;42.144;24.730;2023-05-01T06:00:04;148067.47;;;26.23;44.73
5877;BME280;2964;42.144;24.730;2023-05-01T06:02:31;148261.94;;;27.01;43.33
5877;BME280;2964;42.144;24.730;2023-05-01T06:04:57;147720.72;;;24.82;47.45
5877;BME280;2964;42.144;24.730;2023-05-01T06:07:25;148423.44;;;27.66;42.75
5877;BME280;2964;42.144;24.730;2023-05-01T06:09:53;148240.34;;;26.92;44.78
5877;BME280;2964;42.144;24.730;2023-05-01T06:12:20;148236.50;;;26.91;43.71
5877;BME280;2964;42.144;24.730;2023-05-01T06:14:46;147809.59;;;25.18;49.27
5877;BME280;2964;42.144;24.730;2023-05-01T06:17:13;148535.41;;;28.11;43.04
5877;BME280;2964;42.144;24.730;2023-05-01T06:19:40;148749.22;;;28.98;41.50
5877;BME280;2964;42.144;24.730;2023-05-01T06:22:06;148773.38;;;29.07;40.60
5877;BME280;2964;42.144;24.730;2023-05-01T06:24:39;148731.41;;;28.91;40.93
5877;BME280;2964;42.144;24.730;2023-05-01T06:27:06;148433.66;;;27.70;42.62
5877;BME280;2964;42.144;24.730;2023-05-01T06:29:32;148511.28;;;28.02;43.48
5877;BME280;2964;42.144;24.730;2023-05-01T06:31:59;148712.31;;;28.83;40.84
5877;BME280;2964;42.144;24.730;2023-05-01T06:34:26;148462.88;;;27.82;42.07
5877;BME280;2964;42.144;24.730;2023-05-01T06:36:52;149151.69;;;30.60;36.77
5877;BME280;2964;42.144;24.730;2023-05-01T06:39:19;148779.72;;;29.10;37.23
5877;BME280;2964;42.144;24.730;2023-05-01T06:41:47;148992.44;;;29.96;36.17
5877;BME280;2964;42.144;24.730;2023-05-01T06:44:14;148805.25;;;29.20;35.96
5877;BME280;2964;42.144;24.730;2023-05-01T06:46:41;148515.03;;;28.03;38.38
5877;BME280;2964;42.144;24.730;2023-05-01T06:49:07;148746.66;;;28.97;37.26
5877;BME280;2964;42.144;24.730;2023-05-01T06:51:34;149285.50;;;31.14;34.96
5877;BME280;2964;42.144;24.730;2023-05-01T06:54:01;149014.09;;;30.05;35.18
5877;BME280;2964;42.144;24.730;2023-05-01T06:56:27;149066.28;;;30.26;34.29
5877;BME280;2964;42.144;24.730;2023-05-01T06:58:55;149520.13;;;32.08;31.92
5877;BME280;2964;42.144;24.730;2023-05-01T07:01:22;149925.91;;;33.72;29.30
5877;BME280;2964;42.144;24.730;2023-05-01T07:03:49;149253.66;;;31.01;31.40
5877;BME280;2964;42.144;24.730;2023-05-01T07:06:15;149346.66;;;31.39;29.46
5877;BME280;2964;42.144;24.730;2023-05-01T07:08:42;149353.06;;;31.41;29.23
5877;BME280;2964;42.144;24.730;2023-05-01T07:11:09;148972.03;;;29.88;32.87
5877;BME280;2964;42.144;24.730;2023-05-01T07:13:35;149364.50;;;31.46;30.64
5877;BME280;2964;42.144;24.730;2023-05-01T07:16:04;149223.00;;;30.89;29.48
5877;BME280;2964;42.144;24.730;2023-05-01T07:18:31;149632.31;;;32.54;28.08
5877;BME280;2964;42.144;24.730;2023-05-01T07:20:59;149592.81;;;32.38;28.97
5877;BME280;2964;42.144;24.730;2023-05-01T07:23:25;149154.22;;;30.61;31.90
5877;BME280;2964;42.144;24.730;2023-05-01T07:25:52;148582.47;;;28.30;35.06
5877;BME280;2964;42.144;24.730;2023-05-01T07:28:18;149660.44;;;32.65;29.16
5877;BME280;2964;42.144;24.730;2023-05-01T07:30:46;150057.38;;;34.25;26.38
5877;BME280;2964;42.144;24.730;2023-05-01T07:33:14;149964.16;;;33.87;27.39
5877;BME280;2964;42.144;24.730;2023-05-01T07:35:40;149987.16;;;33.96;25.75
5877;BME280;2964;42.144;24.730;2023-05-01T07:38:07;149872.25;;;33.50;26.41
5877;BME280;2964;42.144;24.730;2023-05-01T07:40:34;148991.13;;;29.95;30.43
5877;BME280;2964;42.144;24.730;2023-05-01T07:43:01;149578.78;;;32.32;29.08
5877;BME280;2964;42.144;24.730;2023-05-01T07:45:28;149961.59;;;33.86;27.48
5877;BME280;2964;42.144;24.730;2023-05-01T07:47:54;149271.50;;;31.08;29.02
5877;BME280;2964;42.144;24.730;2023-05-01T07:50:23;149970.53;;;33.90;27.04
5877;BME280;2964;42.144;24.730;2023-05-01T07:52:50;150075.25;;;34.32;25.58
5877;BME280;2964;42.144;24.730;2023-05-01T07:55:17;149826.31;;;33.32;26.82
5877;BME280;2964;42.144;24.730;2023-05-01T07:57:44;150650.25;;;36.63;23.19
5877;BME280;2964;42.144;24.730;2023-05-01T08:00:11;149990.97;;;33.98;25.92
5877;BME280;2964;42.144;24.730;2023-05-01T08:02:38;149627.22;;;32.51;28.54
5877;BME280;2964;42.144;24.730;2023-05-01T08:05:05;150071.41;;;34.30;26.02
5877;BME280;2964;42.144;24.730;2023-05-01T08:07:33;150498.13;;;36.02;23.57
5877;BME280;2964;42.144;24.730;2023-05-01T08:10:00;149973.09;;;33.91;24.92
5877;BME280;2964;42.144;24.730;2023-05-01T08:12:27;149757.38;;;33.04;25.97
5877;BME280;2964;42.144;24.730;2023-05-01T08:14:55;149654.03;;;32.62;27.58
5877;BME280;2964;42.144;24.730;2023-05-01T08:17:22;150015.22;;;34.08;26.75
5877;BME280;2964;42.144;24.730;2023-05-01T08:19:49;149813.53;;;33.26;27.98
5877;BME280;2964;42.144;24.730;2023-05-01T08:22:18;151096.69;;;38.42;22.15
5877;BME280;2964;42.144;24.730;2023-05-01T08:24:46;150773.03;;;37.12;21.74
5877;BME280;2964;42.144;24.730;2023-05-01T08:27:12;149883.72;;;33.55;25.80
5877;BME280;2964;42.144;24.730;2023-05-01T08:29:39;150128.88;;;34.53;23.81
5877;BME280;2964;42.144;24.730;2023-05-01T08:32:05;149670.66;;;32.69;24.64
5877;BME280;2964;42.144;24.730;2023-05-01T08:34:32;149632.31;;;32.54;25.84
5877;BME280;2964;42.144;24.730;2023-05-01T08:36:59;150238.75;;;34.97;23.66
5877;BME280;2964;42.144;24.730;2023-05-01T08:39:25;149351.75;;;31.41;28.44
5877;BME280;2964;42.144;24.730;2023-05-01T08:41:54;150077.84;;;34.33;26.08
5877;BME280;2964;42.144;24.730;2023-05-01T08:44:24;150353.75;;;35.44;23.11
5877;BME280;2964;42.144;24.730;2023-05-01T08:47:00;150283.41;;;35.15;24.46
5877;BME280;2964;42.144;24.730;2023-05-01T08:49:32;149943.72;;;33.79;25.93
5877;BME280;2964;42.144;24.730;2023-05-01T08:52:01;149776.56;;;33.12;24.87
5877;BME280;2964;42.144;24.730;2023-05-01T08:54:30;150020.31;;;34.10;23.76
5877;BME280;2964;42.144;24.730;2023-05-01T08:56:59;149578.78;;;32.32;25.49
5877;BME280;2964;42.144;24.730;2023-05-01T08:59:29;149604.25;;;32.42;25.62
5877;BME280;2964;42.144;24.730;2023-05-01T09:01:59;149902.84;;;33.62;24.11
5877;BME280;2964;42.144;24.730;2023-05-01T09:04:28;149094.34;;;30.37;27.96
5877;BME280;2964;42.144;24.730;2023-05-01T09:06:57;149511.19;;;32.05;26.36
5877;BME280;2964;42.144;24.730;2023-05-01T09:09:25;149936.09;;;33.76;24.84
5877;BME280;2964;42.144;24.730;2023-05-01T09:11:52;149131.28;;;30.52;27.77
5877;BME280;2964;42.144;24.730;2023-05-01T09:14:21;149175.88;;;30.70;28.09
5877;BME280;2964;42.144;24.730;2023-05-01T09:16:48;149446.13;;;31.79;27.42
5877;BME280;2964;42.144;24.730;2023-05-01T09:19:15;149696.13;;;32.79;24.90
5877;BME280;2964;42.144;24.730;2023-05-01T09:21:41;149488.19;;;31.96;26.18
5877;BME280;2964;42.144;24.730;2023-05-01T09:24:08;149502.22;;;32.01;27.20
5877;BME280;2964;42.144;24.730;2023-05-01T09:26:38;149368.38;;;31.47;26.83
5877;BME280;2964;42.144;24.730;2023-05-01T09:29:06;149770.16;;;33.09;25.26
5877;BME280;2964;42.144;24.730;2023-05-01T09:31:36;149465.25;;;31.86;24.60
5877;BME280;2964;42.144;24.730;2023-05-01T09:34:04;149339.00;;;31.35;26.15
5877;BME280;2964;42.144;24.730;2023-05-01T09:36:32;148982.25;;;29.92;28.11
5877;BME280;2964;42.144;24.730;2023-05-01T09:39:00;148735.22;;;28.92;29.81
5877;BME280;2964;42.144;24.730;2023-05-01T09:41:28;148691.94;;;28.75;31.49
5877;BME280;2964;42.144;24.730;2023-05-01T09:43:56;149007.72;;;30.02;30.98
5877;BME280;2964;42.144;24.730;2023-05-01T09:46:24;149038.28;;;30.14;29.73
5877;BME280;2964;42.144;24.730;2023-05-01T09:48:54;148824.34;;;29.28;31.08
5877;BME280;2964;42.144;24.730;2023-05-01T09:51:23;148637.22;;;28.53;32.54
5877;BME280;2964;42.144;24.730;2023-05-01T09:53:51;148870.16;;;29.47;31.08
5877;BME280;2964;42.144;24.730;2023-05-01T09:56:18;148931.25;;;29.71;31.30
5877;BME280;2964;42.144;24.730;2023-05-01T09:58:45;148689.41;;;28.74;31.35
5877;BME280;2964;42.144;24.730;2023-05-01T10:01:12;148773.38;;;29.07;32.17
5877;BME280;2964;42.144;24.730;2023-05-01T10:03:39;148802.69;;;29.19;30.71
5877;BME280;2964;42.144;24.730;2023-05-01T10:06:08;148705.94;;;28.80;31.04
5877;BME280;2964;42.144;24.730;2023-05-01T10:08:45;148111.94;;;26.41;34.34
5877;BME280;2964;42.144;24.730;2023-05-01T10:11:12;147636.91;;;24.48;37.91
5877;BME280;2964;42.144;24.730;2023-05-01T10:13:38;147565.88;;;24.20;38.50
5877;BME280;2964;42.144;24.730;2023-05-01T10:16:06;147550.63;;;24.14;38.02
5877;BME280;2964;42.144;24.730;2023-05-01T10:18:35;147466.94;;;23.80;38.55
5877;BME280;2964;42.144;24.730;2023-05-01T10:21:02;147335.00;;;23.26;39.63
5877;BME280;2964;42.144;24.730;2023-05-01T10:23:30;147340.06;;;23.28;39.90
5877;BME280;2964;42.144;24.730;2023-05-01T10:26:00;147302.03;;;23.13;39.48
5877;BME280;2964;42.144;24.730;2023-05-01T10:28:28;147199.28;;;22.71;41.29
5877;BME280;2964;42.144;24.730;2023-05-01T10:30:56;147230.97;;;22.84;40.45
5877;BME280;2964;42.144;24.730;2023-05-01T10:33:23;147149.88;;;22.51;40.67
5877;BME280;2964;42.144;24.730;2023-05-01T10:35:56;147105.50;;;22.33;40.19
5877;BME280;2964;42.144;24.730;2023-05-01T10:38:27;147138.47;;;22.47;41.01
5877;BME280;2964;42.144;24.730;2023-05-01T10:40:58;147154.94;;;22.53;40.98
5877;BME280;2964;42.144;24.730;2023-05-01T10:43:26;147180.28;;;22.64;40.98
5877;BME280;2964;42.144;24.730;2023-05-01T10:46:25;147223.38;;;22.81;39.98
5877;BME280;2964;42.144;24.730;2023-05-01T10:48:55;147204.34;;;22.73;39.95
5877;BME280;2964;42.144;24.730;2023-05-01T10:51:23;147171.41;;;22.60;40.39
5877;BME280;2964;42.144;24.730;2023-05-01T10:54:25;147227.16;;;22.83;39.85
5877;BME280;2964;42.144;24.730;2023-05-01T10:56:55;147110.59;;;22.35;40.56
5877;BME280;2964;42.144;24.730;2023-05-01T10:59:24;147039.59;;;22.07;41.96
5877;BME280;2964;42.144;24.730;2023-05-01T11:01:51;146921.78;;;21.59;42.64
5877;BME280;2964;42.144;24.730;2023-05-01T11:04:49;146926.84;;;21.61;43.38
5877;BME280;2964;42.144;24.730;2023-05-01T11:07:21;146969.94;;;21.78;42.81
5877;BME280;2964;42.144;24.730;2023-05-01T11:09:49;147018.03;;;21.98;41.72
5877;BME280;2964;42.144;24.730;2023-05-01T11:12:49;147043.41;;;22.08;42.37
5877;BME280;2964;42.144;24.730;2023-05-01T11:15:29;147061.13;;;22.15;42.59
5877;BME280;2964;42.144;24.730;2023-05-01T11:17:57;146885.00;;;21.44;40.99
5877;BME280;2964;42.144;24.730;2023-05-01T11:20:47;146954.69;;;21.72;41.88
5877;BME280;2964;42.144;24.730;2023-05-01T11:23:21;147018.03;;;21.98;41.96
5877;BME280;2964;42.144;24.730;2023-05-01T11:26:00;146997.78;;;21.90;41.10
5877;BME280;2964;42.144;24.730;2023-05-01T11:28:30;147010.47;;;21.95;41.79
5877;BME280;2964;42.144;24.730;2023-05-01T11:30:57;146897.72;;;21.49;41.82
5877;BME280;2964;42.144;24.730;2023-05-01T11:33:24;146942.06;;;21.67;42.22
5877;BME280;2964;42.144;24.730;2023-05-01T11:35:58;146947.13;;;21.69;41.44
5877;BME280;2964;42.144;24.730;2023-05-01T11:38:25;147006.66;;;21.93;44.69
5877;BME280;2964;42.144;24.730;2023-05-01T11:40:53;146906.59;;;21.53;46.97
5877;BME280;2964;42.144;24.730;2023-05-01T11:43:21;146858.41;;;21.33;47.33
5877;BME280;2964;42.144;24.730;2023-05-01T11:45:51;146853.34;;;21.31;47.03
5877;BME280;2964;42.144;24.730;2023-05-01T11:48:19;146850.84;;;21.30;47.26
5877;BME280;2964;42.144;24.730;2023-05-01T11:50:46;146871.09;;;21.38;46.98
5877;BME280;2964;42.144;24.730;2023-05-01T11:53:13;146778.66;;;21.01;47.34
5877;BME280;2964;42.144;24.730;2023-05-01T11:55:40;146795.09;;;21.08;47.15
5877;BME280;2964;42.144;24.730;2023-05-01T11:58:07;146773.63;;;20.99;47.29
5877;BME280;2964;42.144;24.730;2023-05-01T12:00:35;146774.88;;;20.99;47.57
5877;BME280;2964;42.144;24.730;2023-05-01T12:03:05;146790.03;;;21.06;47.38
5877;BME280;2964;42.144;24.730;2023-05-01T12:05:33;146829.31;;;21.21;46.64
5877;BME280;2964;42.144;24.730;2023-05-01T12:08:12;146809.03;;;21.13;46.84
5877;BME280;2964;42.144;24.730;2023-05-01T12:10:41;146809.03;;;21.13;47.02
5877;BME280;2964;42.144;24.730;2023-05-01T12:13:09;146777.38;;;21.00;47.56
5877;BME280;2964;42.144;24.730;2023-05-01T12:15:38;146759.66;;;20.93;47.64
5877;BME280;2964;42.144;24.730;2023-05-01T12:18:06;146763.44;;;20.95;47.50
5877;BME280;2964;42.144;24.730;2023-05-01T12:20:37;146812.84;;;21.15;47.33
5877;BME280;2964;42.144;24.730;2023-05-01T12:23:06;146841.97;;;21.27;46.68
5877;BME280;2964;42.144;24.730;2023-05-01T12:25:34;146834.38;;;21.24;46.10
5877;BME280;2964;42.144;24.730;2023-05-01T12:28:02;146824.25;;;21.19;46.12
5877;BME280;2964;42.144;24.730;2023-05-01T12:30:29;146830.56;;;21.22;45.93
5877;BME280;2964;42.144;24.730;2023-05-01T12:32:57;146862.22;;;21.35;45.90
5877;BME280;2964;42.144;24.730;2023-05-01T12:35:29;146860.97;;;21.34;45.13
5877;BME280;2964;42.144;24.730;2023-05-01T12:37:56;146906.59;;;21.53;44.92
5877;BME280;2964;42.144;24.730;2023-05-01T12:40:24;146904.03;;;21.52;45.04
5877;BME280;2964;42.144;24.730;2023-05-01T12:42:55;146917.97;;;21.57;44.56
5877;BME280;2964;42.144;24.730;2023-05-01T12:45:23;146924.34;;;21.60;44.06
5877;BME280;2964;42.144;24.730;2023-05-01T12:47:50;146958.50;;;21.74;43.58
5877;BME280;2964;42.144;24.730;2023-05-01T12:50:18;146977.50;;;21.82;42.99
5877;BME280;2964;42.144;24.730;2023-05-01T12:52:47;146934.47;;;21.64;42.56
5877;BME280;2964;42.144;24.730;2023-05-01T12:55:14;146934.47;;;21.64;43.10
5877;BME280;2964;42.144;24.730;2023-05-01T12:57:51;146866.03;;;21.36;42.28
5877;BME280;2964;42.144;24.730;2023-05-01T13:00:19;146919.28;;;21.58;42.07
5877;BME280;2964;42.144;24.730;2023-05-01T13:02:46;146881.19;;;21.43;41.60
5877;BME280;2964;42.144;24.730;2023-05-01T13:05:13;146855.91;;;21.32;40.82